sensor_id;sensor_type;location;lat;lon;timestamp;temperature;humidity
16408;DHT22;8313;49.894;8.084;2023-10-09T00:01:03;16.90;99.90
16408;DHT22;8313;49.894;8.084;2023-10-09T00:03:49;16.90;99.90
16408;DHT22;8313;49.894;8.084;2023-10-09T00:06:19;16.90;99.90
16408;DHT22;8313;49.894;8.084;2023-10-09T00:08:55;16.90;99.90
16408;DHT22;8313;49.894;8.084;2023-10-09T00:11:23;16.90;99.90
16408;DHT22;8313;49.894;8.084;2023-10-09T00:13:55;16.90;99.90
16408;DHT22;8313;49.894;8.084;2023-10-09T00:16:25;16.90;99.90
16408;DHT22;8313;49.894;8.084;2023-10-09T00:19:13;16.80;99.90
16408;DHT22;8313;49.894;8.084;2023-10-09T00:21:43;16.80;99.90
16408;DHT22;8313;49.894;8.084;2023-10-09T00:24:09;16.80;99.90
16408;DHT22;8313;49.894;8.084;2023-10-09T00:26:58;16.80;99.90
16408;DHT22;8313;49.894;8.084;2023-10-09T00:29:39;16.80;99.90
16408;DHT22;8313;49.894;8.084;2023-10-09T00:32:14;16.80;99.90
16408;DHT22;8313;49.894;8.084;2023-10-09T00:34:49;16.70;99.90
16408;DHT22;8313;49.894;8.084;2023-10-09T00:37:18;16.70;99.90
16408;DHT22;8313;49.894;8.084;2023-10-09T00:39:49;16.70;99.90
16408;DHT22;8313;49.894;8.084;2023-10-09T00:42:22;16.70;99.90
16408;DHT22;8313;49.894;8.084;2023-10-09T00:44:53;16.70;99.90
16408;DHT22;8313;49.894;8.084;2023-10-09T00:47:19;16.70;99.90
16408;DHT22;8313;49.894;8.084;2023-10-09T00:50:00;16.70;99.90
16408;DHT22;8313;49.894;8.084;2023-10-09T00:52:37;16.60;99.90
16408;DHT22;8313;49.894;8.084;2023-10-09T00:55:15;16.60;99.90
16408;DHT22;8313;49.894;8.084;2023-10-09T00:57:48;16.60;99.90
16408;DHT22;8313;49.894;8.084;2023-10-09T01:00:23;16.60;99.90
16408;DHT22;8313;49.894;8.084;2023-10-09T01:03:12;16.50;99.90
16408;DHT22;8313;49.894;8.084;2023-10-09T01:05:50;16.50;99.90
16408;DHT22;8313;49.894;8.084;2023-10-09T01:08:34;16.50;99.90
16408;DHT22;8313;49.894;8.084;2023-10-09T01:13:40;16.40;99.90
16408;DHT22;8313;49.894;8.084;2023-10-09T01:16:27;16.40;99.90
16408;DHT22;8313;49.894;8.084;2023-10-09T01:18:56;16.40;99.90
16408;DHT22;8313;49.894;8.084;2023-10-09T01:21:23;16.40;99.90
16408;DHT22;8313;49.894;8.084;2023-10-09T01:23:53;16.40;99.90
16408;DHT22;8313;49.894;8.084;2023-10-09T01:26:36;16.40;99.90
16408;DHT22;8313;49.894;8.084;2023-10-09T01:29:09;16.40;99.90
16408;DHT22;8313;49.894;8.084;2023-10-09T01:31:51;16.40;99.90
16408;DHT22;8313;49.894;8.084;2023-10-09T01:34:18;16.30;99.90
16408;DHT22;8313;49.894;8.084;2023-10-09T01:36:44;16.40;99.90
16408;DHT22;8313;49.894;8.084;2023-10-09T01:39:14;16.30;99.90
16408;DHT22;8313;49.894;8.084;2023-10-09T01:41:50;16.30;99.90
16408;DHT22;8313;49.894;8.084;2023-10-09T01:44:23;16.40;99.90
16408;DHT22;8313;49.894;8.084;2023-10-09T01:46:50;16.40;99.90
16408;DHT22;8313;49.894;8.084;2023-10-09T01:49:18;16.30;99.90
16408;DHT22;8313;49.894;8.084;2023-10-09T01:51:47;16.30;99.90
16408;DHT22;8313;49.894;8.084;2023-10-09T01:54:15;16.30;99.90
16408;DHT22;8313;49.894;8.084;2023-10-09T01:56:59;16.30;99.90
16408;DHT22;8313;49.894;8.084;2023-10-09T01:59:32;16.20;99.90
16408;DHT22;8313;49.894;8.084;2023-10-09T02:01:58;16.20;99.90
16408;DHT22;8313;49.894;8.084;2023-10-09T02:04:27;16.20;99.90
16408;DHT22;8313;49.894;8.084;2023-10-09T02:06:54;16.10;99.90
16408;DHT22;8313;49.894;8.084;2023-10-09T02:09:20;16.10;99.90
16408;DHT22;8313;49.894;8.084;2023-10-09T02:11:48;16.20;99.90
16408;DHT22;8313;49.894;8.084;2023-10-09T02:14:13;16.10;99.90
16408;DHT22;8313;49.894;8.084;2023-10-09T02:16:48;16.20;99.90
16408;DHT22;8313;49.894;8.084;2023-10-09T02:19:33;16.10;99.90
16408;DHT22;8313;49.894;8.084;2023-10-09T02:22:02;16.20;99.90
16408;DHT22;8313;49.894;8.084;2023-10-09T02:24:39;16.20;99.90
16408;DHT22;8313;49.894;8.084;2023-10-09T02:27:17;16.20;99.90
16408;DHT22;8313;49.894;8.084;2023-10-09T02:30:08;16.20;99.90
16408;DHT22;8313;49.894;8.084;2023-10-09T02:32:44;16.20;99.90
16408;DHT22;8313;49.894;8.084;2023-10-09T02:35:15;16.10;99.90
16408;DHT22;8313;49.894;8.084;2023-10-09T02:37:54;16.10;99.90
16408;DHT22;8313;49.894;8.084;2023-10-09T02:40:20;16.10;99.90
16408;DHT22;8313;49.894;8.084;2023-10-09T02:42:51;16.10;99.90
16408;DHT22;8313;49.894;8.084;2023-10-09T02:45:17;16.10;99.90
16408;DHT22;8313;49.894;8.084;2023-10-09T02:47:54;16.10;99.90
16408;DHT22;8313;49.894;8.084;2023-10-09T02:50:21;16.10;99.90
16408;DHT22;8313;49.894;8.084;2023-10-09T02:52:48;16.10;99.90
16408;DHT22;8313;49.894;8.084;2023-10-09T02:55:26;16.10;99.90
16408;DHT22;8313;49.894;8.084;2023-10-09T02:57:54;16.10;99.90
16408;DHT22;8313;49.894;8.084;2023-10-09T03:00:33;16.10;99.90
16408;DHT22;8313;49.894;8.084;2023-10-09T03:03:05;16.00;99.90
16408;DHT22;8313;49.894;8.084;2023-10-09T03:05:33;16.10;99.90
16408;DHT22;8313;49.894;8.084;2023-10-09T03:07:59;16.00;99.90
16408;DHT22;8313;49.894;8.084;2023-10-09T03:10:25;16.00;99.90
16408;DHT22;8313;49.894;8.084;2023-10-09T03:12:54;15.90;99.90
16408;DHT22;8313;49.894;8.084;2023-10-09T03:15:20;16.00;99.90
16408;DHT22;8313;49.894;8.084;2023-10-09T03:17:46;15.90;99.90
16408;DHT22;8313;49.894;8.084;2023-10-09T03:20:16;15.90;99.90
16408;DHT22;8313;49.894;8.084;2023-10-09T03:22:44;15.90;99.90
16408;DHT22;8313;49.894;8.084;2023-10-09T03:25:10;15.90;99.90
16408;DHT22;8313;49.894;8.084;2023-10-09T03:27:43;15.90;99.90
16408;DHT22;8313;49.894;8.084;2023-10-09T03:30:15;15.90;99.90
16408;DHT22;8313;49.894;8.084;2023-10-09T03:32:52;15.90;99.90
16408;DHT22;8313;49.894;8.084;2023-10-09T03:35:19;15.90;99.90
16408;DHT22;8313;49.894;8.084;2023-10-09T03:37:55;15.90;99.90
16408;DHT22;8313;49.894;8.084;2023-10-09T03:40:26;15.90;99.90
16408;DHT22;8313;49.894;8.084;2023-10-09T03:42:53;15.80;99.90
16408;DHT22;8313;49.894;8.084;2023-10-09T03:45:21;15.90;99.90
16408;DHT22;8313;49.894;8.084;2023-10-09T03:47:55;15.80;99.90
16408;DHT22;8313;49.894;8.084;2023-10-09T03:50:41;15.70;99.90
16408;DHT22;8313;49.894;8.084;2023-10-09T03:53:08;15.70;99.90
16408;DHT22;8313;49.894;8.084;2023-10-09T03:55:37;15.80;99.90
16408;DHT22;8313;49.894;8.084;2023-10-09T03:58:06;15.80;99.90
16408;DHT22;8313;49.894;8.084;2023-10-09T04:00:32;15.80;99.90
16408;DHT22;8313;49.894;8.084;2023-10-09T04:03:06;15.80;99.90
16408;DHT22;8313;49.894;8.084;2023-10-09T04:05:32;15.80;99.90
16408;DHT22;8313;49.894;8.084;2023-10-09T04:07:58;15.80;99.90
16408;DHT22;8313;49.894;8.084;2023-10-09T04:10:27;15.80;99.90
16408;DHT22;8313;49.894;8.084;2023-10-09T04:13:08;15.80;99.90
16408;DHT22;8313;49.894;8.084;2023-10-09T04:15:37;15.80;99.90
16408;DHT22;8313;49.894;8.084;2023-10-09T04:18:03;15.70;99.90
16408;DHT22;8313;49.894;8.084;2023-10-09T04:20:31;15.70;99.90
16408;DHT22;8313;49.894;8.084;2023-10-09T04:22:57;15.80;99.90
16408;DHT22;8313;49.894;8.084;2023-10-09T04:25:30;15.80;99.90
16408;DHT22;8313;49.894;8.084;2023-10-09T04:28:08;15.80;99.90
16408;DHT22;8313;49.894;8.084;2023-10-09T04:30:38;15.80;99.90
16408;DHT22;8313;49.894;8.084;2023-10-09T04:33:15;15.70;99.90
16408;DHT22;8313;49.894;8.084;2023-10-09T04:36:03;15.70;99.90
16408;DHT22;8313;49.894;8.084;2023-10-09T04:38:58;15.60;99.90
16408;DHT22;8313;49.894;8.084;2023-10-09T04:41:27;15.50;99.90
16408;DHT22;8313;49.894;8.084;2023-10-09T04:44:17;15.50;99.90
16408;DHT22;8313;49.894;8.084;2023-10-09T04:46:43;15.40;99.90
16408;DHT22;8313;49.894;8.084;2023-10-09T04:49:12;15.30;99.90
16408;DHT22;8313;49.894;8.084;2023-10-09T04:51:56;15.40;99.90
16408;DHT22;8313;49.894;8.084;2023-10-09T04:54:31;15.50;99.90
16408;DHT22;8313;49.894;8.084;2023-10-09T04:57:26;15.50;99.90
16408;DHT22;8313;49.894;8.084;2023-10-09T04:59:52;15.50;99.90
16408;DHT22;8313;49.894;8.084;2023-10-09T05:02:17;15.50;99.90
16408;DHT22;8313;49.894;8.084;2023-10-09T05:04:48;15.50;99.90
16408;DHT22;8313;49.894;8.084;2023-10-09T05:07:34;15.50;99.90
16408;DHT22;8313;49.894;8.084;2023-10-09T05:10:22;15.50;99.90
16408;DHT22;8313;49.894;8.084;2023-10-09T05:12:51;15.50;99.90
16408;DHT22;8313;49.894;8.084;2023-10-09T05:15:23;15.60;99.90
16408;DHT22;8313;49.894;8.084;2023-10-09T05:17:55;15.50;99.90
16408;DHT22;8313;49.894;8.084;2023-10-09T05:20:35;15.50;99.90
16408;DHT22;8313;49.894;8.084;2023-10-09T05:23:21;15.50;99.90
16408;DHT22;8313;49.894;8.084;2023-10-09T05:25:50;15.50;99.90
16408;DHT22;8313;49.894;8.084;2023-10-09T05:28:19;15.50;99.90
16408;DHT22;8313;49.894;8.084;2023-10-09T05:30:57;15.50;99.90
16408;DHT22;8313;49.894;8.084;2023-10-09T05:33:37;15.40;99.90
16408;DHT22;8313;49.894;8.084;2023-10-09T05:36:05;15.30;99.90
16408;DHT22;8313;49.894;8.084;2023-10-09T05:38:51;15.30;99.90
16408;DHT22;8313;49.894;8.084;2023-10-09T05:41:46;15.30;99.90
16408;DHT22;8313;49.894;8.084;2023-10-09T05:44:25;15.30;99.90
16408;DHT22;8313;49.894;8.084;2023-10-09T05:47:09;15.40;99.90
16408;DHT22;8313;49.894;8.084;2023-10-09T05:49:53;15.40;99.90
16408;DHT22;8313;49.894;8.084;2023-10-09T05:52:34;15.40;99.90
16408;DHT22;8313;49.894;8.084;2023-10-09T05:55:03;15.40;99.90
16408;DHT22;8313;49.894;8.084;2023-10-09T05:57:45;15.30;99.90
16408;DHT22;8313;49.894;8.084;2023-10-09T06:00:29;15.40;99.90
16408;DHT22;8313;49.894;8.084;2023-10-09T06:03:14;15.30;99.90
16408;DHT22;8313;49.894;8.084;2023-10-09T06:05:51;15.40;99.90
16408;DHT22;8313;49.894;8.084;2023-10-09T06:08:29;15.40;99.90
16408;DHT22;8313;49.894;8.084;2023-10-09T06:11:08;15.40;99.90
16408;DHT22;8313;49.894;8.084;2023-10-09T06:14:02;15.40;99.90
16408;DHT22;8313;49.894;8.084;2023-10-09T06:16:43;15.40;99.90
16408;DHT22;8313;49.894;8.084;2023-10-09T06:19:27;15.50;99.90
16408;DHT22;8313;49.894;8.084;2023-10-09T06:21:59;15.50;99.90
16408;DHT22;8313;49.894;8.084;2023-10-09T06:24:41;15.50;99.90
16408;DHT22;8313;49.894;8.084;2023-10-09T06:27:10;15.50;99.90
16408;DHT22;8313;49.894;8.084;2023-10-09T06:29:36;15.50;99.90
16408;DHT22;8313;49.894;8.084;2023-10-09T06:32:19;15.50;99.90
16408;DHT22;8313;49.894;8.084;2023-10-09T06:34:46;15.60;99.90
16408;DHT22;8313;49.894;8.084;2023-10-09T06:37:17;15.60;99.90
16408;DHT22;8313;49.894;8.084;2023-10-09T06:39:53;15.60;99.90
16408;DHT22;8313;49.894;8.084;2023-10-09T06:42:26;15.50;99.90
16408;DHT22;8313;49.894;8.084;2023-10-09T06:45:02;15.60;99.90
16408;DHT22;8313;49.894;8.084;2023-10-09T06:47:46;15.50;99.90
16408;DHT22;8313;49.894;8.084;2023-10-09T06:50:30;15.50;99.90
16408;DHT22;8313;49.894;8.084;2023-10-09T06:53:15;15.50;99.90
16408;DHT22;8313;49.894;8.084;2023-10-09T06:55:41;15.60;99.90
16408;DHT22;8313;49.894;8.084;2023-10-09T06:58:20;15.60;99.90
16408;DHT22;8313;49.894;8.084;2023-10-09T07:00:51;15.60;99.90
16408;DHT22;8313;49.894;8.084;2023-10-09T07:03:20;15.60;99.90
16408;DHT22;8313;49.894;8.084;2023-10-09T07:06:05;15.60;99.90
16408;DHT22;8313;49.894;8.084;2023-10-09T07:08:36;15.60;99.90
16408;DHT22;8313;49.894;8.084;2023-10-09T07:11:10;15.70;99.90
16408;DHT22;8313;49.894;8.084;2023-10-09T07:13:58;15.70;99.90
16408;DHT22;8313;49.894;8.084;2023-10-09T07:16:27;15.70;99.90
16408;DHT22;8313;49.894;8.084;2023-10-09T07:19:06;15.70;99.90
16408;DHT22;8313;49.894;8.084;2023-10-09T07:21:38;15.70;99.90
16408;DHT22;8313;49.894;8.084;2023-10-09T07:24:05;15.70;99.90
16408;DHT22;8313;49.894;8.084;2023-10-09T07:26:42;15.70;99.90
16408;DHT22;8313;49.894;8.084;2023-10-09T07:29:21;15.70;99.90
16408;DHT22;8313;49.894;8.084;2023-10-09T07:31:48;15.80;99.90
16408;DHT22;8313;49.894;8.084;2023-10-09T07:34:24;15.80;99.90
16408;DHT22;8313;49.894;8.084;2023-10-09T07:37:23;15.80;99.90
16408;DHT22;8313;49.894;8.084;2023-10-09T07:39:52;15.80;99.90
16408;DHT22;8313;49.894;8.084;2023-10-09T07:42:26;15.80;99.90
16408;DHT22;8313;49.894;8.084;2023-10-09T07:45:10;15.80;99.90
16408;DHT22;8313;49.894;8.084;2023-10-09T07:47:48;15.90;99.90
16408;DHT22;8313;49.894;8.084;2023-10-09T07:50:28;15.90;99.90
16408;DHT22;8313;49.894;8.084;2023-10-09T07:53:07;15.90;99.90
16408;DHT22;8313;49.894;8.084;2023-10-09T07:55:55;15.90;99.90
16408;DHT22;8313;49.894;8.084;2023-10-09T07:58:25;16.00;99.90
16408;DHT22;8313;49.894;8.084;2023-10-09T08:00:55;16.00;99.90
16408;DHT22;8313;49.894;8.084;2023-10-09T08:03:24;16.10;99.90
16408;DHT22;8313;49.894;8.084;2023-10-09T08:05:51;16.10;99.90
16408;DHT22;8313;49.894;8.084;2023-10-09T08:08:19;16.10;99.90
16408;DHT22;8313;49.894;8.084;2023-10-09T08:10:54;16.20;99.90
16408;DHT22;8313;49.894;8.084;2023-10-09T08:13:38;16.20;99.90
16408;DHT22;8313;49.894;8.084;2023-10-09T08:16:23;16.20;99.90
16408;DHT22;8313;49.894;8.084;2023-10-09T08:18:50;16.30;99.90
16408;DHT22;8313;49.894;8.084;2023-10-09T08:21:18;16.30;99.90
16408;DHT22;8313;49.894;8.084;2023-10-09T08:24:07;16.40;99.90
16408;DHT22;8313;49.894;8.084;2023-10-09T08:26:53;16.40;99.90
16408;DHT22;8313;49.894;8.084;2023-10-09T08:29:39;16.40;99.90
16408;DHT22;8313;49.894;8.084;2023-10-09T08:32:11;16.50;99.90
16408;DHT22;8313;49.894;8.084;2023-10-09T08:35:05;16.50;99.90
16408;DHT22;8313;49.894;8.084;2023-10-09T08:37:45;16.60;99.90
16408;DHT22;8313;49.894;8.084;2023-10-09T08:40:16;16.60;99.90
16408;DHT22;8313;49.894;8.084;2023-10-09T08:42:52;16.70;99.90
16408;DHT22;8313;49.894;8.084;2023-10-09T08:45:22;16.70;99.90
16408;DHT22;8313;49.894;8.084;2023-10-09T08:47:56;16.70;99.90
16408;DHT22;8313;49.894;8.084;2023-10-09T08:50:22;16.80;99.90
16408;DHT22;8313;49.894;8.084;2023-10-09T08:52:53;16.80;99.90
16408;DHT22;8313;49.894;8.084;2023-10-09T08:55:20;16.80;99.90
16408;DHT22;8313;49.894;8.084;2023-10-09T08:57:46;16.80;99.90
16408;DHT22;8313;49.894;8.084;2023-10-09T09:00:21;16.90;99.90
16408;DHT22;8313;49.894;8.084;2023-10-09T09:02:55;16.90;99.90
16408;DHT22;8313;49.894;8.084;2023-10-09T09:05:20;16.90;99.90
16408;DHT22;8313;49.894;8.084;2023-10-09T09:07:47;17.00;99.90
16408;DHT22;8313;49.894;8.084;2023-10-09T09:10:13;17.10;99.90
16408;DHT22;8313;49.894;8.084;2023-10-09T09:12:49;17.10;99.90
16408;DHT22;8313;49.894;8.084;2023-10-09T09:15:27;17.20;99.90
16408;DHT22;8313;49.894;8.084;2023-10-09T09:18:03;17.20;99.90
16408;DHT22;8313;49.894;8.084;2023-10-09T09:20:32;17.20;99.90
16408;DHT22;8313;49.894;8.084;2023-10-09T09:23:02;17.30;99.90
16408;DHT22;8313;49.894;8.084;2023-10-09T09:25:42;17.30;99.90
16408;DHT22;8313;49.894;8.084;2023-10-09T09:28:14;17.30;99.90
16408;DHT22;8313;49.894;8.084;2023-10-09T09:30:45;17.40;99.90
16408;DHT22;8313;49.894;8.084;2023-10-09T09:33:26;17.40;99.90
16408;DHT22;8313;49.894;8.084;2023-10-09T09:36:10;17.40;99.90
16408;DHT22;8313;49.894;8.084;2023-10-09T09:38:39;17.40;99.90
16408;DHT22;8313;49.894;8.084;2023-10-09T09:41:14;17.40;99.90
16408;DHT22;8313;49.894;8.084;2023-10-09T09:43:57;17.40;99.90
16408;DHT22;8313;49.894;8.084;2023-10-09T09:46:32;17.40;99.90
16408;DHT22;8313;49.894;8.084;2023-10-09T09:49:04;17.50;99.90
16408;DHT22;8313;49.894;8.084;2023-10-09T09:51:33;17.50;99.90
16408;DHT22;8313;49.894;8.084;2023-10-09T09:54:01;17.50;99.90
16408;DHT22;8313;49.894;8.084;2023-10-09T09:56:37;17.60;99.90
16408;DHT22;8313;49.894;8.084;2023-10-09T09:59:05;17.60;99.90
16408;DHT22;8313;49.894;8.084;2023-10-09T10:01:33;17.70;99.90
16408;DHT22;8313;49.894;8.084;2023-10-09T10:04:15;17.70;99.90
16408;DHT22;8313;49.894;8.084;2023-10-09T10:06:47;17.80;99.90
16408;DHT22;8313;49.894;8.084;2023-10-09T10:09:37;17.90;99.90
16408;DHT22;8313;49.894;8.084;2023-10-09T10:12:10;17.90;99.90
16408;DHT22;8313;49.894;8.084;2023-10-09T10:15:02;17.90;99.90
16408;DHT22;8313;49.894;8.084;2023-10-09T10:20:26;18.00;99.90
16408;DHT22;8313;49.894;8.084;2023-10-09T10:23:14;18.10;99.90
16408;DHT22;8313;49.894;8.084;2023-10-09T10:25:43;18.20;99.90
16408;DHT22;8313;49.894;8.084;2023-10-09T10:31:07;18.40;99.90
16408;DHT22;8313;49.894;8.084;2023-10-09T10:36:22;18.60;99.90
16408;DHT22;8313;49.894;8.084;2023-10-09T10:39:06;18.70;99.90
16408;DHT22;8313;49.894;8.084;2023-10-09T10:41:35;18.80;99.90
16408;DHT22;8313;49.894;8.084;2023-10-09T10:44:14;19.00;99.90
16408;DHT22;8313;49.894;8.084;2023-10-09T10:46:58;19.00;99.90
16408;DHT22;8313;49.894;8.084;2023-10-09T10:49:24;19.00;99.90
16408;DHT22;8313;49.894;8.084;2023-10-09T10:51:52;19.00;99.90
16408;DHT22;8313;49.894;8.084;2023-10-09T10:54:27;19.10;99.90
16408;DHT22;8313;49.894;8.084;2023-10-09T10:56:59;19.20;99.90
16408;DHT22;8313;49.894;8.084;2023-10-09T10:59:29;19.20;99.90
16408;DHT22;8313;49.894;8.084;2023-10-09T11:01:59;19.30;99.90
16408;DHT22;8313;49.894;8.084;2023-10-09T11:04:29;19.50;99.90
16408;DHT22;8313;49.894;8.084;2023-10-09T11:07:02;19.70;99.90
16408;DHT22;8313;49.894;8.084;2023-10-09T11:09:51;19.70;99.90
16408;DHT22;8313;49.894;8.084;2023-10-09T11:12:32;19.90;99.90
16408;DHT22;8313;49.894;8.084;2023-10-09T11:15:36;20.20;99.90
16408;DHT22;8313;49.894;8.084;2023-10-09T11:18:42;20.20;99.90
16408;DHT22;8313;49.894;8.084;2023-10-09T11:21:15;20.20;99.90
16408;DHT22;8313;49.894;8.084;2023-10-09T11:23:42;20.20;99.90
16408;DHT22;8313;49.894;8.084;2023-10-09T11:26:25;20.40;99.90
16408;DHT22;8313;49.894;8.084;2023-10-09T11:29:13;20.50;99.90
16408;DHT22;8313;49.894;8.084;2023-10-09T11:31:58;20.90;99.90
16408;DHT22;8313;49.894;8.084;2023-10-09T11:34:25;20.90;99.90
16408;DHT22;8313;49.894;8.084;2023-10-09T11:37:15;20.90;99.90
16408;DHT22;8313;49.894;8.084;2023-10-09T11:39:41;21.00;99.90
16408;DHT22;8313;49.894;8.084;2023-10-09T11:42:19;21.20;99.90
16408;DHT22;8313;49.894;8.084;2023-10-09T11:45:26;21.40;99.90
16408;DHT22;8313;49.894;8.084;2023-10-09T11:47:56;21.40;99.90
16408;DHT22;8313;49.894;8.084;2023-10-09T11:50:46;21.40;99.90
16408;DHT22;8313;49.894;8.084;2023-10-09T11:53:18;21.30;99.90
16408;DHT22;8313;49.894;8.084;2023-10-09T11:55:47;21.30;99.90
16408;DHT22;8313;49.894;8.084;2023-10-09T11:58:16;21.50;99.90
16408;DHT22;8313;49.894;8.084;2023-10-09T12:00:51;21.50;99.90
16408;DHT22;8313;49.894;8.084;2023-10-09T12:03:23;21.70;99.90
16408;DHT22;8313;49.894;8.084;2023-10-09T12:05:55;21.80;99.90
16408;DHT22;8313;49.894;8.084;2023-10-09T12:08:25;21.80;99.90
16408;DHT22;8313;49.894;8.084;2023-10-09T12:10:54;21.70;99.90
16408;DHT22;8313;49.894;8.084;2023-10-09T12:13:22;21.90;99.90
16408;DHT22;8313;49.894;8.084;2023-10-09T12:15:52;22.00;99.90
16408;DHT22;8313;49.894;8.084;2023-10-09T12:18:19;21.90;99.90
16408;DHT22;8313;49.894;8.084;2023-10-09T12:20:45;22.00;99.90
16408;DHT22;8313;49.894;8.084;2023-10-09T12:23:21;22.20;99.80
16408;DHT22;8313;49.894;8.084;2023-10-09T12:25:51;22.20;99.90
16408;DHT22;8313;49.894;8.084;2023-10-09T12:28:17;22.20;99.90
16408;DHT22;8313;49.894;8.084;2023-10-09T12:30:47;22.30;99.40
16408;DHT22;8313;49.894;8.084;2023-10-09T12:33:17;22.30;99.90
16408;DHT22;8313;49.894;8.084;2023-10-09T12:35:43;22.30;99.70
16408;DHT22;8313;49.894;8.084;2023-10-09T12:38:13;22.40;99.90
16408;DHT22;8313;49.894;8.084;2023-10-09T12:40:44;22.60;99.90
16408;DHT22;8313;49.894;8.084;2023-10-09T12:43:17;22.80;99.80
16408;DHT22;8313;49.894;8.084;2023-10-09T12:45:45;22.80;99.90
16408;DHT22;8313;49.894;8.084;2023-10-09T12:48:11;22.90;99.70
16408;DHT22;8313;49.894;8.084;2023-10-09T12:50:38;22.80;99.70
16408;DHT22;8313;49.894;8.084;2023-10-09T12:53:11;22.80;99.90
16408;DHT22;8313;49.894;8.084;2023-10-09T12:55:37;22.90;99.30
16408;DHT22;8313;49.894;8.084;2023-10-09T12:58:07;22.90;99.20
16408;DHT22;8313;49.894;8.084;2023-10-09T13:00:37;22.90;99.30
16408;DHT22;8313;49.894;8.084;2023-10-09T13:03:06;22.90;99.10
16408;DHT22;8313;49.894;8.084;2023-10-09T13:05:52;22.90;99.50
16408;DHT22;8313;49.894;8.084;2023-10-09T13:08:28;22.80;99.90
16408;DHT22;8313;49.894;8.084;2023-10-09T13:11:09;22.90;99.20
16408;DHT22;8313;49.894;8.084;2023-10-09T13:13:43;23.00;99.20
16408;DHT22;8313;49.894;8.084;2023-10-09T13:16:18;23.20;98.60
16408;DHT22;8313;49.894;8.084;2023-10-09T13:18:50;23.30;98.60
16408;DHT22;8313;49.894;8.084;2023-10-09T13:21:21;23.30;99.60
16408;DHT22;8313;49.894;8.084;2023-10-09T13:23:48;23.30;99.60
16408;DHT22;8313;49.894;8.084;2023-10-09T13:26:17;23.40;99.30
16408;DHT22;8313;49.894;8.084;2023-10-09T13:28:48;23.40;99.10
16408;DHT22;8313;49.894;8.084;2023-10-09T13:31:15;23.60;98.50
16408;DHT22;8313;49.894;8.084;2023-10-09T13:33:41;23.70;98.50
16408;DHT22;8313;49.894;8.084;2023-10-09T13:36:11;23.60;98.50
16408;DHT22;8313;49.894;8.084;2023-10-09T13:38:45;23.50;99.40
16408;DHT22;8313;49.894;8.084;2023-10-09T13:41:12;23.70;98.20
16408;DHT22;8313;49.894;8.084;2023-10-09T13:43:43;23.70;98.00
16408;DHT22;8313;49.894;8.084;2023-10-09T13:46:12;23.70;98.10
16408;DHT22;8313;49.894;8.084;2023-10-09T13:48:41;23.70;98.00
16408;DHT22;8313;49.894;8.084;2023-10-09T13:51:12;23.70;98.20
16408;DHT22;8313;49.894;8.084;2023-10-09T13:53:45;23.70;98.20
16408;DHT22;8313;49.894;8.084;2023-10-09T13:56:15;23.70;98.40
16408;DHT22;8313;49.894;8.084;2023-10-09T13:58:48;23.70;98.40
16408;DHT22;8313;49.894;8.084;2023-10-09T14:01:15;23.70;98.70
16408;DHT22;8313;49.894;8.084;2023-10-09T14:03:55;23.80;98.50
16408;DHT22;8313;49.894;8.084;2023-10-09T14:06:22;23.80;98.90
16408;DHT22;8313;49.894;8.084;2023-10-09T14:09:00;23.80;98.90
16408;DHT22;8313;49.894;8.084;2023-10-09T14:11:30;23.90;98.90
16408;DHT22;8313;49.894;8.084;2023-10-09T14:13:56;24.00;99.00
16408;DHT22;8313;49.894;8.084;2023-10-09T14:16:22;24.00;99.20
16408;DHT22;8313;49.894;8.084;2023-10-09T14:18:56;23.90;99.40
16408;DHT22;8313;49.894;8.084;2023-10-09T14:21:29;24.00;99.40
16408;DHT22;8313;49.894;8.084;2023-10-09T14:23:58;24.10;99.10
16408;DHT22;8313;49.894;8.084;2023-10-09T14:26:25;24.00;99.30
16408;DHT22;8313;49.894;8.084;2023-10-09T14:28:52;24.10;99.50
16408;DHT22;8313;49.894;8.084;2023-10-09T14:31:18;24.10;99.60
16408;DHT22;8313;49.894;8.084;2023-10-09T14:33:52;24.30;98.80
16408;DHT22;8313;49.894;8.084;2023-10-09T14:36:19;24.30;99.20
16408;DHT22;8313;49.894;8.084;2023-10-09T14:38:48;24.30;99.30
16408;DHT22;8313;49.894;8.084;2023-10-09T14:41:18;24.30;99.10
16408;DHT22;8313;49.894;8.084;2023-10-09T14:43:46;24.30;99.20
16408;DHT22;8313;49.894;8.084;2023-10-09T14:46:14;24.20;99.40
16408;DHT22;8313;49.894;8.084;2023-10-09T14:48:39;24.20;99.20
16408;DHT22;8313;49.894;8.084;2023-10-09T14:51:06;24.20;99.50
16408;DHT22;8313;49.894;8.084;2023-10-09T14:53:35;24.20;99.20
16408;DHT22;8313;49.894;8.084;2023-10-09T14:56:01;24.20;99.30
16408;DHT22;8313;49.894;8.084;2023-10-09T14:58:34;24.20;99.00
16408;DHT22;8313;49.894;8.084;2023-10-09T15:01:10;24.20;99.10
16408;DHT22;8313;49.894;8.084;2023-10-09T15:03:36;24.20;99.10
16408;DHT22;8313;49.894;8.084;2023-10-09T15:06:05;24.10;99.10
16408;DHT22;8313;49.894;8.084;2023-10-09T15:08:36;24.00;99.30
16408;DHT22;8313;49.894;8.084;2023-10-09T15:11:02;24.00;99.30
16408;DHT22;8313;49.894;8.084;2023-10-09T15:13:27;24.00;99.70
16408;DHT22;8313;49.894;8.084;2023-10-09T15:15:54;24.00;99.50
16408;DHT22;8313;49.894;8.084;2023-10-09T15:18:21;24.00;99.40
16408;DHT22;8313;49.894;8.084;2023-10-09T15:20:48;23.90;99.50
16408;DHT22;8313;49.894;8.084;2023-10-09T15:23:14;23.90;99.70
16408;DHT22;8313;49.894;8.084;2023-10-09T15:25:40;23.80;99.70
16408;DHT22;8313;49.894;8.084;2023-10-09T15:28:08;23.80;99.90
16408;DHT22;8313;49.894;8.084;2023-10-09T15:30:35;23.80;99.90
16408;DHT22;8313;49.894;8.084;2023-10-09T15:33:04;23.80;99.90
16408;DHT22;8313;49.894;8.084;2023-10-09T15:35:31;23.70;99.90
16408;DHT22;8313;49.894;8.084;2023-10-09T15:38:03;23.70;99.90
16408;DHT22;8313;49.894;8.084;2023-10-09T15:40:32;23.60;99.90
16408;DHT22;8313;49.894;8.084;2023-10-09T15:43:01;23.60;99.90
16408;DHT22;8313;49.894;8.084;2023-10-09T15:45:27;23.60;99.90
16408;DHT22;8313;49.894;8.084;2023-10-09T15:47:54;23.60;99.90
16408;DHT22;8313;49.894;8.084;2023-10-09T15:50:21;23.50;99.90
16408;DHT22;8313;49.894;8.084;2023-10-09T15:52:52;23.50;99.90
16408;DHT22;8313;49.894;8.084;2023-10-09T15:55:19;23.50;99.90
16408;DHT22;8313;49.894;8.084;2023-10-09T15:57:46;23.50;99.90
16408;DHT22;8313;49.894;8.084;2023-10-09T16:00:14;23.40;99.90
16408;DHT22;8313;49.894;8.084;2023-10-09T16:02:47;23.40;99.90
16408;DHT22;8313;49.894;8.084;2023-10-09T16:05:13;23.30;99.90
16408;DHT22;8313;49.894;8.084;2023-10-09T16:07:39;23.20;99.80
16408;DHT22;8313;49.894;8.084;2023-10-09T16:10:06;23.20;99.40
16408;DHT22;8313;49.894;8.084;2023-10-09T16:12:34;23.10;99.50
16408;DHT22;8313;49.894;8.084;2023-10-09T16:15:00;23.10;99.20
16408;DHT22;8313;49.894;8.084;2023-10-09T16:17:26;23.00;98.80
16408;DHT22;8313;49.894;8.084;2023-10-09T16:19:52;23.00;98.80
16408;DHT22;8313;49.894;8.084;2023-10-09T16:22:18;22.90;98.60
16408;DHT22;8313;49.894;8.084;2023-10-09T16:24:44;22.80;98.20
16408;DHT22;8313;49.894;8.084;2023-10-09T16:27:10;22.80;98.00
16408;DHT22;8313;49.894;8.084;2023-10-09T16:29:39;22.70;98.10
16408;DHT22;8313;49.894;8.084;2023-10-09T16:32:05;22.70;97.70
16408;DHT22;8313;49.894;8.084;2023-10-09T16:34:33;22.60;97.50